createdAt,value
2019-02-19T00:02:14.538Z,3.26
2019-02-19T00:04:43.261Z,3.30
2019-02-19T00:07:11.938Z,3.43
2019-02-19T00:09:40.614Z,3.50
2019-02-19T00:12:09.291Z,3.41
2019-02-19T00:14:38.147Z,3.29
2019-02-19T00:17:06.822Z,3.25
2019-02-19T00:19:35.546Z,3.13
2019-02-19T00:22:04.716Z,2.96
2019-02-19T00:24:33.379Z,2.92
2019-02-19T00:27:02.066Z,2.95
2019-02-19T00:29:30.741Z,2.96
2019-02-19T00:31:59.407Z,2.88
2019-02-19T00:34:28.084Z,2.71
2019-02-19T00:36:56.761Z,2.59
2019-02-19T00:39:25.445Z,2.60
2019-02-19T00:41:54.156Z,2.52
2019-02-19T00:44:22.927Z,2.63
2019-02-19T00:46:51.667Z,2.69
2019-02-19T00:49:20.348Z,2.67
2019-02-19T00:51:49.022Z,2.71
2019-02-19T00:54:17.689Z,2.75
2019-02-19T00:56:46.467Z,2.79
2019-02-19T00:59:15.184Z,2.80
2019-02-19T01:01:44.007Z,2.86
2019-02-19T01:04:12.651Z,2.87
2019-02-19T01:06:41.331Z,2.86
2019-02-19T01:09:10.136Z,2.79
2019-02-19T01:11:38.766Z,2.60
2019-02-19T01:14:07.551Z,2.51
2019-02-19T01:16:36.220Z,2.38
2019-02-19T01:19:04.893Z,2.45
2019-02-19T01:21:33.571Z,2.53
2019-02-19T01:24:02.239Z,2.43
2019-02-19T01:26:30.940Z,2.43
2019-02-19T01:28:59.791Z,2.33
2019-02-19T01:31:28.477Z,2.35
2019-02-19T01:33:57.140Z,2.39
2019-02-19T01:36:25.815Z,2.39
2019-02-19T01:38:54.494Z,2.39
2019-02-19T01:41:23.264Z,2.35
2019-02-19T01:43:51.934Z,2.31
2019-02-19T01:46:20.615Z,2.27
2019-02-19T01:48:49.293Z,2.12
2019-02-19T01:51:17.948Z,1.91
2019-02-19T01:53:46.627Z,1.89
2019-02-19T01:56:15.311Z,1.80
2019-02-19T01:58:44.093Z,1.86
2019-02-19T02:01:12.836Z,1.87
2019-02-19T02:03:41.496Z,1.82
2019-02-19T02:06:10.175Z,1.86
2019-02-19T02:08:38.854Z,2.01
2019-02-19T02:11:07.516Z,1.98
2019-02-19T02:13:36.403Z,2.00
2019-02-19T02:16:05.090Z,1.93
2019-02-19T02:18:33.766Z,1.94
2019-02-19T02:21:02.452Z,1.91
2019-02-19T02:23:31.133Z,1.88
2019-02-19T02:25:59.798Z,1.92
2019-02-19T02:28:28.471Z,2.01
2019-02-19T02:30:57.145Z,2.11
2019-02-19T02:33:26.020Z,2.22
2019-02-19T02:35:54.716Z,2.21
2019-02-19T02:38:23.367Z,2.22
2019-02-19T02:40:52.030Z,2.26
2019-02-19T02:43:20.694Z,2.25
2019-02-19T02:45:53.547Z,2.20
2019-02-19T02:48:19.840Z,2.26
2019-02-19T02:50:48.501Z,2.28
2019-02-19T02:53:17.168Z,2.25
2019-02-19T02:55:45.832Z,2.06
2019-02-19T02:58:14.499Z,2.13
2019-02-19T03:00:43.168Z,2.14
2019-02-19T03:03:11.967Z,2.22
2019-02-19T03:05:43.658Z,2.13
2019-02-19T03:08:12.336Z,1.99
2019-02-19T03:10:41.023Z,2.05
2019-02-19T03:13:09.693Z,2.02
2019-02-19T03:15:38.368Z,1.98
2019-02-19T03:18:07.066Z,2.01
2019-02-19T03:20:35.758Z,2.06
2019-02-19T03:23:04.434Z,2.06
2019-02-19T03:25:33.091Z,2.04
2019-02-19T03:28:01.779Z,1.97
2019-02-19T03:30:30.437Z,2.01
2019-02-19T03:32:59.118Z,2.02
2019-02-19T03:35:27.794Z,2.04
2019-02-19T03:37:56.470Z,1.93
2019-02-19T03:40:25.141Z,1.88
2019-02-19T03:42:54.011Z,1.93
2019-02-19T03:45:22.670Z,1.96
2019-02-19T03:47:51.348Z,1.92
2019-02-19T03:50:20.013Z,1.88
2019-02-19T03:52:48.950Z,1.84
2019-02-19T03:55:17.615Z,1.82
2019-02-19T03:57:46.376Z,1.66
2019-02-19T04:00:15.035Z,1.62
2019-02-19T04:02:43.871Z,1.57
2019-02-19T04:05:12.681Z,1.70
2019-02-19T04:07:41.403Z,1.82
2019-02-19T04:10:10.084Z,1.85
2019-02-19T04:12:38.754Z,1.85
2019-02-19T04:15:08.361Z,1.93
2019-02-19T04:17:37.030Z,1.86
2019-02-19T04:20:09.396Z,1.91
2019-02-19T04:22:38.162Z,1.89
2019-02-19T04:25:06.935Z,1.97
2019-02-19T04:27:35.604Z,2.00
2019-02-19T04:30:05.566Z,2.00
2019-02-19T04:32:34.232Z,1.95
2019-02-19T04:35:02.911Z,1.89
2019-02-19T04:37:31.572Z,1.86
2019-02-19T04:40:00.349Z,1.80
2019-02-19T04:42:28.983Z,1.80
2019-02-19T04:44:57.777Z,1.81
2019-02-19T04:47:26.445Z,1.74
2019-02-19T04:49:55.115Z,1.81
2019-02-19T04:52:23.928Z,1.79
2019-02-19T04:54:52.597Z,1.79
2019-02-19T04:57:21.308Z,1.80
2019-02-19T04:59:50.260Z,1.72
2019-02-19T05:02:18.968Z,1.77
2019-02-19T05:04:47.616Z,1.60
2019-02-19T05:07:16.342Z,1.64
2019-02-19T05:09:44.989Z,1.63
2019-02-19T05:12:13.651Z,1.70
2019-02-19T05:14:42.338Z,1.65
2019-02-19T05:17:11.002Z,1.72
2019-02-19T05:19:39.730Z,1.66
2019-02-19T05:22:08.397Z,1.56
2019-02-19T05:24:37.059Z,1.51
2019-02-19T05:27:05.731Z,1.51
2019-02-19T05:29:36.947Z,1.31
2019-02-19T05:32:05.666Z,1.58
2019-02-19T05:34:34.326Z,1.60
2019-02-19T05:37:02.999Z,1.58
2019-02-19T05:39:31.679Z,1.65
2019-02-19T05:42:00.334Z,1.65
2019-02-19T05:44:29.007Z,1.66
2019-02-19T05:46:57.680Z,1.63
2019-02-19T05:49:26.336Z,1.63
2019-02-19T05:51:55.008Z,1.82
2019-02-19T05:54:23.746Z,1.97
2019-02-19T05:56:52.434Z,2.14
2019-02-19T05:59:21.122Z,2.16
2019-02-19T06:01:49.886Z,2.17
2019-02-19T06:04:18.943Z,2.20
2019-02-19T06:06:47.641Z,2.33
2019-02-19T06:09:16.309Z,2.44
2019-02-19T06:11:44.971Z,2.40
2019-02-19T06:14:13.694Z,2.41
2019-02-19T06:16:42.418Z,2.58
2019-02-19T06:19:11.096Z,2.81
2019-02-19T06:21:40.076Z,2.80
2019-02-19T06:24:08.932Z,2.75
2019-02-19T06:26:37.616Z,2.93
2019-02-19T06:29:06.278Z,3.38
2019-02-19T06:31:35.054Z,3.93
2019-02-19T06:34:03.818Z,4.45
2019-02-19T06:36:32.502Z,4.70
2019-02-19T06:39:01.471Z,4.67
2019-02-19T06:41:30.164Z,4.28
2019-02-19T06:43:58.843Z,4.44
2019-02-19T06:46:29.315Z,4.49
2019-02-19T06:48:57.931Z,4.51
2019-02-19T06:51:26.792Z,4.54
2019-02-19T06:53:55.839Z,4.61
2019-02-19T06:56:25.101Z,4.76
2019-02-19T06:58:54.524Z,4.68
2019-02-19T07:01:24.952Z,4.80
2019-02-19T07:03:55.198Z,4.77
2019-02-19T07:06:23.911Z,4.85
2019-02-19T07:08:52.875Z,4.92
2019-02-19T07:11:21.630Z,5.00
2019-02-19T07:13:50.541Z,5.23
2019-02-19T07:16:19.353Z,5.19
2019-02-19T07:18:48.580Z,5.10
2019-02-19T07:21:17.431Z,5.08
2019-02-19T07:23:46.213Z,5.23
2019-02-19T07:26:14.938Z,5.39
2019-02-19T07:28:43.831Z,5.47
2019-02-19T07:31:14.327Z,5.61
2019-02-19T07:33:43.017Z,5.76
2019-02-19T07:36:11.955Z,5.84
2019-02-19T07:38:40.666Z,6.01
2019-02-19T07:41:09.513Z,6.13
2019-02-19T07:43:38.820Z,6.23
2019-02-19T07:46:07.900Z,6.43
2019-02-19T07:48:40.245Z,6.72
2019-02-19T07:51:09.273Z,7.30
2019-02-19T07:53:38.076Z,7.55
2019-02-19T07:56:06.988Z,7.49
2019-02-19T07:58:36.090Z,7.49
2019-02-19T08:01:04.921Z,7.49
2019-02-19T08:03:33.704Z,7.54
2019-02-19T08:06:02.989Z,7.51
2019-02-19T08:08:32.128Z,7.55
2019-02-19T08:11:01.177Z,7.63
2019-02-19T08:13:30.121Z,7.71
2019-02-19T08:15:59.046Z,7.62
2019-02-19T08:18:27.740Z,7.55
2019-02-19T08:20:56.431Z,7.60
2019-02-19T08:23:25.444Z,7.56
2019-02-19T08:25:54.120Z,7.61
2019-02-19T08:28:23.024Z,7.78
2019-02-19T08:30:51.788Z,7.91
2019-02-19T08:33:20.501Z,8.00
2019-02-19T08:35:49.317Z,8.00
2019-02-19T08:38:18.348Z,8.10
2019-02-19T08:40:47.563Z,8.26
2019-02-19T08:43:16.255Z,8.47
2019-02-19T08:45:45.247Z,8.57
2019-02-19T08:48:14.410Z,8.81
2019-02-19T08:50:43.372Z,8.93
2019-02-19T08:53:12.521Z,8.99
2019-02-19T08:55:42.050Z,9.24
2019-02-19T08:58:10.852Z,9.36
2019-02-19T09:00:39.604Z,9.60
2019-02-19T09:03:08.320Z,9.61
2019-02-19T09:05:37.089Z,9.75
2019-02-19T09:08:05.949Z,9.91
2019-02-19T09:10:35.124Z,10.11
2019-02-19T09:13:04.475Z,10.22
2019-02-19T09:15:33.426Z,10.34
2019-02-19T09:18:02.372Z,10.40
2019-02-19T09:20:31.193Z,10.57
2019-02-19T09:22:59.882Z,10.52
2019-02-19T09:25:29.221Z,10.62
2019-02-19T09:27:57.909Z,10.71
2019-02-19T09:30:26.920Z,10.78
2019-02-19T09:32:55.844Z,10.88
2019-02-19T09:35:24.953Z,13.68
2019-02-19T09:37:53.848Z,18.78
2019-02-19T09:40:23.285Z,22.57
2019-02-19T09:42:56.478Z,25.18
2019-02-19T09:45:25.534Z,26.56
2019-02-19T09:48:01.032Z,24.66
2019-02-19T09:50:25.144Z,25.96
2019-02-19T09:52:59.800Z,27.64
2019-02-19T09:55:24.928Z,30.28
2019-02-19T10:00:22.222Z,30.00
2019-02-19T10:02:50.953Z,30.70
2019-02-19T10:05:19.889Z,28.98
2019-02-19T10:07:48.663Z,28.58
2019-02-19T10:10:19.964Z,28.18
2019-02-19T10:12:49.319Z,28.58
2019-02-19T10:15:18.221Z,28.12
2019-02-19T10:17:46.969Z,27.20
2019-02-19T10:20:16.288Z,25.67
2019-02-19T10:22:45.174Z,21.17
2019-02-19T10:25:15.551Z,19.16
2019-02-19T10:27:44.284Z,18.01
2019-02-19T10:30:17.922Z,17.10
2019-02-19T10:32:46.714Z,16.90
2019-02-19T10:35:15.382Z,16.36
2019-02-19T10:37:45.778Z,16.01
2019-02-19T10:40:27.231Z,15.98
2019-02-19T10:42:56.005Z,15.81
2019-02-19T10:45:26.258Z,17.91
2019-02-19T10:47:55.077Z,20.67
2019-02-19T10:50:24.202Z,22.41
2019-02-19T10:52:53.618Z,25.73
2019-02-19T10:55:22.763Z,27.32
2019-02-19T10:57:52.600Z,28.40
2019-02-19T11:00:23.674Z,31.07
2019-02-19T11:02:52.785Z,32.37
2019-02-19T11:05:22.123Z,33.38
2019-02-19T11:07:53.657Z,33.11
2019-02-19T11:10:22.772Z,33.51
2019-02-19T11:12:51.659Z,33.01
2019-02-19T11:15:22.546Z,32.43
2019-02-19T11:17:51.227Z,33.72
2019-02-19T11:20:22.611Z,34.96
2019-02-19T11:22:51.523Z,34.49
2019-02-19T11:25:20.234Z,32.20
2019-02-19T11:27:49.334Z,30.31
2019-02-19T11:30:20.611Z,32.09
2019-02-19T11:32:50.074Z,33.72
2019-02-19T11:35:19.148Z,33.61
2019-02-19T11:37:48.296Z,34.12
2019-02-19T11:40:20.047Z,32.98
2019-02-19T11:42:50.262Z,31.76
2019-02-19T11:45:20.591Z,31.63
2019-02-19T11:47:49.939Z,30.42
2019-02-19T11:50:18.769Z,29.63
2019-02-19T11:52:47.702Z,31.90
2019-02-19T11:55:18.523Z,33.53
2019-02-19T11:57:47.524Z,33.82
2019-02-19T12:00:21.446Z,34.42
2019-02-19T12:02:50.433Z,36.23
2019-02-19T12:05:20.451Z,35.25
2019-02-19T12:07:49.241Z,35.14
2019-02-19T12:10:18.193Z,35.04
2019-02-19T12:12:47.075Z,34.81
2019-02-19T12:15:16.088Z,35.07
2019-02-19T12:17:44.804Z,34.79
2019-02-19T12:20:14.740Z,35.39
2019-02-19T12:22:43.589Z,34.95
2019-02-19T12:25:12.559Z,35.61
2019-02-19T12:27:41.222Z,36.19
2019-02-19T12:30:20.866Z,33.98
2019-02-19T12:32:51.345Z,35.17
2019-02-19T12:35:20.155Z,35.34
2019-02-19T12:37:49.009Z,35.51
2019-02-19T12:40:17.785Z,35.63
2019-02-19T12:42:46.724Z,35.72
2019-02-19T12:45:16.432Z,34.88
2019-02-19T12:47:45.315Z,35.85
2019-02-19T12:50:18.969Z,36.15
2019-02-19T12:52:47.884Z,35.54
2019-02-19T12:55:17.330Z,35.13
2019-02-19T12:57:46.125Z,35.09
2019-02-19T13:00:18.832Z,35.47
2019-02-19T13:02:48.126Z,35.82
2019-02-19T13:05:17.473Z,32.63
2019-02-19T13:07:47.048Z,32.54
2019-02-19T13:10:16.085Z,32.16
2019-02-19T13:12:44.867Z,31.44
2019-02-19T13:15:15.945Z,33.25
2019-02-19T13:17:45.120Z,34.01
2019-02-19T13:20:15.133Z,34.94
2019-02-19T13:22:43.915Z,34.66
2019-02-19T13:25:13.009Z,34.69
2019-02-19T13:27:41.826Z,34.14
2019-02-19T13:30:13.420Z,34.47
2019-02-19T13:32:42.478Z,34.65
2019-02-19T13:35:12.526Z,34.05
2019-02-19T13:37:41.605Z,34.24
2019-02-19T13:40:13.446Z,34.41
2019-02-19T13:42:42.178Z,33.46
2019-02-19T13:45:15.786Z,33.50
2019-02-19T13:47:44.459Z,34.27
2019-02-19T13:50:22.626Z,34.65
2019-02-19T13:52:53.352Z,34.09
2019-02-19T13:55:23.852Z,33.95
2019-02-19T13:57:53.216Z,32.61
2019-02-19T14:00:24.005Z,32.63
2019-02-19T14:02:52.666Z,32.11
2019-02-19T14:05:21.629Z,30.79
2019-02-19T14:07:50.278Z,29.71
2019-02-19T14:10:19.107Z,30.56
2019-02-19T14:12:48.092Z,31.91
2019-02-19T14:15:21.498Z,32.29
2019-02-19T14:17:50.282Z,32.85
2019-02-19T14:20:23.810Z,31.98
2019-02-19T14:22:57.013Z,30.76
2019-02-19T14:25:27.415Z,30.28
2019-02-19T14:28:14.548Z,28.77
2019-02-19T14:30:45.984Z,28.57
2019-02-19T14:33:32.578Z,29.91
2019-02-19T14:36:21.751Z,30.14
2019-02-19T14:38:54.871Z,30.58
2019-02-19T14:41:40.850Z,30.80
2019-02-19T14:44:13.845Z,27.90
2019-02-19T14:46:44.230Z,25.55
2019-02-19T14:49:37.114Z,23.69
2019-02-19T14:52:14.354Z,22.44
2019-02-19T14:55:01.294Z,21.22
2019-02-19T14:57:32.066Z,20.37
2019-02-19T15:00:18.615Z,19.72
2019-02-19T15:02:51.738Z,19.13
2019-02-19T15:05:37.401Z,18.32
2019-02-19T15:08:08.632Z,17.94
2019-02-19T15:10:38.931Z,17.57
2019-02-19T15:13:09.286Z,17.31
2019-02-19T15:15:51.684Z,16.96
2019-02-19T15:18:22.145Z,16.64
2019-02-19T15:20:52.429Z,16.27
2019-02-19T15:23:28.634Z,15.92
2019-02-19T15:26:02.105Z,15.75
2019-02-19T15:28:35.684Z,15.55
2019-02-19T15:31:24.845Z,15.41
2019-02-19T15:34:07.401Z,15.11
2019-02-19T15:36:38.080Z,14.63
2019-02-19T15:39:24.996Z,14.20
2019-02-19T15:42:01.059Z,13.89
2019-02-19T15:44:37.591Z,13.55
2019-02-19T15:47:24.785Z,13.29
2019-02-19T15:50:01.187Z,12.93
2019-02-19T15:52:37.844Z,12.75
2019-02-19T15:55:08.538Z,12.55
2019-02-19T15:57:42.021Z,12.36
2019-02-19T16:00:30.433Z,12.15
2019-02-19T16:03:10.007Z,12.02
2019-02-19T16:05:43.022Z,11.91
2019-02-19T16:08:18.976Z,11.75
2019-02-19T16:10:49.506Z,11.62
2019-02-19T16:13:19.798Z,11.49
2019-02-19T16:16:08.079Z,11.41
2019-02-19T16:18:54.739Z,11.24
2019-02-19T16:21:31.126Z,11.03
2019-02-19T16:24:10.697Z,10.89
2019-02-19T16:26:43.869Z,10.72
2019-02-19T16:29:26.170Z,10.61
2019-02-19T16:32:05.481Z,10.59
2019-02-19T16:34:41.737Z,10.62
2019-02-19T16:37:18.097Z,10.74
2019-02-19T16:40:00.651Z,10.79
2019-02-19T16:42:36.895Z,10.86
2019-02-19T16:45:12.290Z,10.87
2019-02-19T16:47:45.658Z,10.96
2019-02-19T16:50:18.669Z,11.06
2019-02-19T16:52:51.685Z,11.17
2019-02-19T16:55:27.711Z,11.28
2019-02-19T16:58:07.284Z,11.36
2019-02-19T17:00:53.967Z,11.33
2019-02-19T17:03:33.267Z,11.29
2019-02-19T17:06:04.429Z,11.25
2019-02-19T17:08:34.649Z,11.19
2019-02-19T17:11:13.863Z,11.26
2019-02-19T17:13:44.122Z,11.29
2019-02-19T17:16:23.447Z,11.27
2019-02-19T17:19:02.694Z,11.23
2019-02-19T17:21:42.368Z,11.20
2019-02-19T17:24:18.703Z,11.07
2019-02-19T17:26:48.982Z,10.89
2019-02-19T17:29:35.401Z,10.77
2019-02-19T17:32:17.608Z,10.67
2019-02-19T17:35:04.351Z,10.60
2019-02-19T17:37:50.805Z,10.54
2019-02-19T17:40:37.414Z,10.47
2019-02-19T17:43:14.351Z,10.38
2019-02-19T17:45:44.609Z,10.21
2019-02-19T17:48:26.835Z,10.08
2019-02-19T17:51:03.275Z,9.98
2019-02-19T17:53:37.299Z,9.96
2019-02-19T17:56:07.536Z,9.94
2019-02-19T17:58:46.771Z,9.85
2019-02-19T18:01:32.216Z,9.85
2019-02-19T18:04:08.556Z,9.82
2019-02-19T18:06:50.871Z,9.70
2019-02-19T18:09:21.126Z,9.62
2019-02-19T18:12:00.239Z,9.67
2019-02-19T18:14:33.505Z,9.85
2019-02-19T18:17:12.474Z,10.00
2019-02-19T18:19:41.153Z,10.04
2019-02-19T18:22:09.820Z,10.04
2019-02-19T18:24:38.533Z,9.95
2019-02-19T18:27:07.189Z,9.85
2019-02-19T18:29:35.907Z,9.81
2019-02-19T18:32:04.529Z,9.78
2019-02-19T18:34:33.296Z,9.76
2019-02-19T18:37:01.974Z,9.66
2019-02-19T18:39:30.665Z,9.51
2019-02-19T18:41:59.326Z,9.54
2019-02-19T18:44:28.049Z,9.36
2019-02-19T18:46:56.741Z,9.22
2019-02-19T18:49:25.501Z,9.17
2019-02-19T18:51:54.435Z,9.11
2019-02-19T18:54:23.253Z,9.10
2019-02-19T18:56:51.900Z,9.11
2019-02-19T18:59:20.568Z,8.90
2019-02-19T19:01:49.296Z,8.78
2019-02-19T19:04:18.061Z,8.70
2019-02-19T19:06:46.751Z,8.54
2019-02-19T19:09:15.440Z,8.42
2019-02-19T19:11:44.297Z,8.28
2019-02-19T19:14:13.151Z,8.31
2019-02-19T19:16:41.866Z,8.11
2019-02-19T19:19:10.500Z,8.06
2019-02-19T19:21:39.175Z,8.07
2019-02-19T19:24:08.353Z,7.90
2019-02-19T19:26:37.042Z,7.77
2019-02-19T19:29:05.706Z,7.74
2019-02-19T19:31:34.399Z,7.70
2019-02-19T19:34:03.077Z,7.51
2019-02-19T19:36:31.764Z,7.77
2019-02-19T19:39:00.435Z,7.80
2019-02-19T19:41:29.112Z,7.72
2019-02-19T19:43:57.789Z,7.64
2019-02-19T19:46:26.503Z,7.44
2019-02-19T19:48:55.192Z,7.31
2019-02-19T19:51:23.853Z,7.26
2019-02-19T19:53:52.542Z,7.19
2019-02-19T19:56:21.374Z,7.11
2019-02-19T19:58:50.040Z,7.17
2019-02-19T20:01:18.855Z,7.08
2019-02-19T20:03:47.787Z,6.97
2019-02-19T20:06:16.513Z,6.84
2019-02-19T20:08:45.465Z,6.84
2019-02-19T20:11:14.151Z,6.83
2019-02-19T20:13:42.872Z,6.67
2019-02-19T20:16:11.661Z,6.60
2019-02-19T20:18:40.559Z,6.52
2019-02-19T20:21:09.240Z,6.46
2019-02-19T20:23:37.951Z,6.49
2019-02-19T20:26:06.616Z,6.42
2019-02-19T20:28:37.187Z,6.33
2019-02-19T20:31:05.866Z,6.18
2019-02-19T20:33:34.542Z,6.19
2019-02-19T20:36:03.563Z,6.13
2019-02-19T20:38:32.395Z,6.14
2019-02-19T20:41:01.386Z,6.13
2019-02-19T20:43:30.172Z,5.99
2019-02-19T20:45:59.053Z,5.86
2019-02-19T20:48:27.749Z,5.86
2019-02-19T20:50:56.734Z,5.79
2019-02-19T20:53:25.487Z,5.83
2019-02-19T20:55:54.338Z,5.51
2019-02-19T20:58:23.303Z,5.79
2019-02-19T21:00:53.332Z,5.71
2019-02-19T21:03:25.283Z,5.66
2019-02-19T21:05:54.278Z,5.56
2019-02-19T21:08:23.376Z,5.48
2019-02-19T21:10:52.272Z,5.56
2019-02-19T21:13:21.584Z,5.40
2019-02-19T21:15:50.579Z,5.44
2019-02-19T21:18:19.455Z,5.42
2019-02-19T21:20:48.740Z,5.28
2019-02-19T21:23:17.592Z,5.26
2019-02-19T21:25:46.749Z,5.37
2019-02-19T21:28:15.597Z,5.26
2019-02-19T21:30:45.465Z,5.15
2019-02-19T21:33:15.074Z,5.11
2019-02-19T21:35:43.915Z,4.94
2019-02-19T21:38:12.822Z,4.84
2019-02-19T21:40:41.776Z,4.75
2019-02-19T21:43:10.748Z,4.78
2019-02-19T21:45:40.379Z,4.66
2019-02-19T21:48:09.265Z,4.73
2019-02-19T21:50:38.176Z,4.83
2019-02-19T21:53:07.242Z,4.83
2019-02-19T21:55:36.340Z,4.93
2019-02-19T21:58:05.435Z,4.85
2019-02-19T22:00:34.328Z,4.86
2019-02-19T22:03:03.322Z,4.79
2019-02-19T22:05:32.237Z,4.76
2019-02-19T22:08:01.224Z,4.81
2019-02-19T22:10:30.049Z,4.86
2019-02-19T22:12:59.098Z,4.89
2019-02-19T22:15:28.003Z,4.85
2019-02-19T22:17:56.990Z,4.91
2019-02-19T22:20:43.497Z,4.89
2019-02-19T22:23:12.507Z,4.82
2019-02-19T22:25:41.386Z,4.86
2019-02-19T22:28:10.383Z,4.86
2019-02-19T22:30:39.475Z,4.87
2019-02-19T22:33:08.879Z,4.88
2019-02-19T22:35:37.979Z,4.90
2019-02-19T22:38:06.879Z,4.96
2019-02-19T22:40:35.971Z,4.94
2019-02-19T22:43:05.075Z,4.92
2019-02-19T22:45:33.969Z,4.86
2019-02-19T22:48:02.805Z,4.81
2019-02-19T22:50:31.763Z,4.83
2019-02-19T22:53:00.871Z,4.74
2019-02-19T22:55:37.117Z,4.65
2019-02-19T22:58:06.213Z,4.74
2019-02-19T23:00:49.455Z,4.69
2019-02-19T23:03:19.863Z,4.51
2019-02-19T23:05:48.770Z,4.42
2019-02-19T23:08:17.620Z,4.47
2019-02-19T23:10:46.563Z,4.39
2019-02-19T23:13:15.804Z,4.27
2019-02-19T23:15:45.462Z,4.08
2019-02-19T23:18:14.547Z,4.19
2019-02-19T23:20:43.453Z,4.28
2019-02-19T23:23:12.459Z,4.14
2019-02-19T23:25:41.549Z,3.99
2019-02-19T23:28:10.543Z,4.10
2019-02-19T23:30:39.442Z,3.96
2019-02-19T23:33:08.643Z,4.00
2019-02-19T23:35:41.867Z,3.93
2019-02-19T23:38:10.827Z,3.76
2019-02-19T23:40:39.719Z,3.73
2019-02-19T23:43:08.621Z,3.74
2019-02-19T23:45:37.611Z,3.77
2019-02-19T23:48:06.503Z,3.75
2019-02-19T23:50:35.407Z,3.67
2019-02-19T23:53:04.403Z,3.54
2019-02-19T23:55:33.490Z,3.66
2019-02-19T23:58:02.384Z,3.63
